createdAt,value
2023-05-18T00:02:16.307Z,7.70
2023-05-18T00:04:44.260Z,7.70
2023-05-18T00:07:11.984Z,8.10
2023-05-18T00:09:42.798Z,7.90
2023-05-18T00:12:12.911Z,8.20
2023-05-18T00:15:34.174Z,7.70
2023-05-18T00:18:01.815Z,7.60
2023-05-18T00:20:35.186Z,7.70
2023-05-18T00:23:06.572Z,7.60
2023-05-18T00:25:33.997Z,8.70
2023-05-18T00:28:01.980Z,9.10
2023-05-18T00:30:32.517Z,8.90
2023-05-18T00:33:00.379Z,8.60
2023-05-18T00:35:33.438Z,9.30
2023-05-18T00:38:02.170Z,9.90
2023-05-18T00:40:30.418Z,9.20
2023-05-18T00:43:00.932Z,9.50
2023-05-18T00:45:31.613Z,9.20
2023-05-18T00:48:00.612Z,10.20
2023-05-18T00:50:32.728Z,9.20
2023-05-18T00:53:07.874Z,9.10
2023-05-18T00:55:35.823Z,9.50
2023-05-18T00:58:09.394Z,10.30
2023-05-18T01:00:45.309Z,9.80
2023-05-18T01:03:15.967Z,10.70
2023-05-18T01:05:50.296Z,11.00
2023-05-18T01:08:18.075Z,10.40
2023-05-18T01:11:00.054Z,10.70
2023-05-18T01:14:05.181Z,10.50
2023-05-18T01:16:46.293Z,10.50
2023-05-18T01:19:31.004Z,11.10
2023-05-18T01:22:30.046Z,12.50
2023-05-18T01:25:33.739Z,12.50
2023-05-18T01:28:06.610Z,12.50
2023-05-18T01:30:41.970Z,12.50
2023-05-18T01:33:14.639Z,12.50
2023-05-18T01:35:51.118Z,12.50
2023-05-18T01:38:27.689Z,13.80
2023-05-18T01:41:32.492Z,13.70
2023-05-18T01:44:18.428Z,14.10
2023-05-18T01:47:00.297Z,12.60
2023-05-18T01:49:40.336Z,12.50
2023-05-18T01:52:19.785Z,12.50
2023-05-18T01:54:55.426Z,12.80
2023-05-18T01:57:28.503Z,13.40
2023-05-18T02:00:04.479Z,14.70
2023-05-18T02:02:43.997Z,15.20
2023-05-18T02:05:22.661Z,14.90
2023-05-18T02:07:53.184Z,15.50
2023-05-18T02:10:27.292Z,15.10
2023-05-18T02:13:02.748Z,15.20
2023-05-18T02:18:29.135Z,15.70
2023-05-18T02:21:01.427Z,15.90
2023-05-18T02:23:28.991Z,16.30
2023-05-18T02:25:56.598Z,15.80
2023-05-18T02:28:27.485Z,16.20
2023-05-18T02:31:12.947Z,16.10
2023-05-18T02:33:41.052Z,17.40
2023-05-18T02:36:13.296Z,17.40
2023-05-18T02:38:44.433Z,17.30
2023-05-18T02:41:12.820Z,17.30
2023-05-18T02:43:40.408Z,17.40
2023-05-18T02:46:11.060Z,17.30
2023-05-18T02:48:38.553Z,18.40
2023-05-18T02:51:14.912Z,18.90
2023-05-18T02:53:45.971Z,18.70
2023-05-18T02:56:16.005Z,18.70
2023-05-18T02:59:00.598Z,17.60
2023-05-18T03:01:37.430Z,18.40
2023-05-18T03:04:05.382Z,18.80
2023-05-18T03:06:36.736Z,18.80
2023-05-18T03:09:09.103Z,18.70
2023-05-18T03:11:43.550Z,17.80
2023-05-18T03:14:14.378Z,17.90
2023-05-18T03:16:46.448Z,17.90
2023-05-18T03:19:18.189Z,18.50
2023-05-18T03:24:40.952Z,19.40
2023-05-18T03:27:16.866Z,19.00
2023-05-18T03:29:51.659Z,19.70
2023-05-18T03:35:26.625Z,19.40
2023-05-18T03:38:01.518Z,20.00
2023-05-18T03:40:37.814Z,20.40
2023-05-18T03:43:22.478Z,20.90
2023-05-18T03:46:11.971Z,21.40
2023-05-18T03:48:42.935Z,22.50
2023-05-18T03:51:13.940Z,21.70
2023-05-18T03:53:44.256Z,21.20
2023-05-18T03:56:14.954Z,22.50
2023-05-18T03:58:45.342Z,22.60
2023-05-18T04:01:15.538Z,22.60
2023-05-18T04:03:50.871Z,22.70
2023-05-18T04:06:23.134Z,25.20
2023-05-18T04:08:55.263Z,25.00
2023-05-18T04:11:28.012Z,24.50
2023-05-18T04:14:06.089Z,23.80
2023-05-18T04:16:41.504Z,23.70
2023-05-18T04:19:12.956Z,24.30
2023-05-18T04:21:43.933Z,25.30
2023-05-18T04:24:15.016Z,26.50
2023-05-18T04:26:48.920Z,26.20
2023-05-18T04:29:18.020Z,26.70
2023-05-18T04:31:48.837Z,27.00
2023-05-18T04:34:22.394Z,26.70
2023-05-18T04:36:54.846Z,26.60
2023-05-18T04:39:26.170Z,25.30
2023-05-18T04:42:02.875Z,23.80
2023-05-18T04:44:40.801Z,23.30
2023-05-18T04:47:08.938Z,23.70
2023-05-18T04:49:39.481Z,24.40
2023-05-18T04:52:18.067Z,25.20
2023-05-18T04:54:57.188Z,23.70
2023-05-18T04:57:34.005Z,22.80
2023-05-18T05:00:09.270Z,22.80
2023-05-18T05:02:38.932Z,23.40
2023-05-18T05:05:14.692Z,22.80
2023-05-18T05:07:44.678Z,22.80
2023-05-18T05:10:15.307Z,22.80
2023-05-18T05:12:49.479Z,22.80
2023-05-18T05:15:21.061Z,23.30
2023-05-18T05:17:54.406Z,22.20
2023-05-18T05:20:46.296Z,22.80
2023-05-18T05:23:17.062Z,20.90
2023-05-18T05:25:46.713Z,22.40
2023-05-18T05:28:17.058Z,21.90
2023-05-18T05:30:46.814Z,20.10
2023-05-18T05:33:29.790Z,21.50
2023-05-18T05:36:21.898Z,22.00
2023-05-18T05:38:57.675Z,19.70
2023-05-18T05:41:37.170Z,19.10
2023-05-18T05:44:10.821Z,19.00
2023-05-18T05:47:07.978Z,17.90
2023-05-18T05:49:48.396Z,17.60
2023-05-18T05:52:32.455Z,16.80
2023-05-18T05:55:19.525Z,15.90
2023-05-18T05:58:22.593Z,16.00
2023-05-18T06:11:10.662Z,14.30
2023-05-18T06:27:27.280Z,14.10
2023-05-18T07:57:11.256Z,1.00
2023-05-18T08:00:02.851Z,1.00
2023-05-18T08:03:12.371Z,1.00
2023-05-18T08:17:47.792Z,1.00
2023-05-18T08:41:28.851Z,1.00
2023-05-18T08:53:06.662Z,1.00
2023-05-18T09:00:18.779Z,1.00
2023-05-18T09:26:13.798Z,1.00
2023-05-18T09:33:40.115Z,1.00
2023-05-18T09:45:20.030Z,1.00
2023-05-18T09:48:00.854Z,1.00
2023-05-18T09:52:08.190Z,1.00
2023-05-18T09:55:14.429Z,1.00
2023-05-18T09:58:56.104Z,1.00
2023-05-18T10:05:39.505Z,1.00
2023-05-18T10:08:56.415Z,1.00
2023-05-18T10:15:19.767Z,1.00
2023-05-18T10:33:17.300Z,1.00
2023-05-18T10:36:16.639Z,1.00
2023-05-18T10:39:35.921Z,1.00
2023-05-18T10:53:03.839Z,1.00
2023-05-18T10:56:49.310Z,1.00
2023-05-18T11:03:43.128Z,1.00
2023-05-18T11:11:08.898Z,1.00
2023-05-18T11:28:55.830Z,1.00
2023-05-18T11:43:24.069Z,1.00
2023-05-18T11:57:29.203Z,1.00
2023-05-18T12:03:48.990Z,1.00
2023-05-18T12:07:07.644Z,1.00
2023-05-18T12:09:45.908Z,1.00
2023-05-18T12:12:17.350Z,1.00
2023-05-18T12:19:13.599Z,1.00
2023-05-18T12:33:50.255Z,1.00
2023-05-18T12:36:56.512Z,1.00
2023-05-18T12:39:28.495Z,1.00
2023-05-18T12:42:35.756Z,1.00
2023-05-18T12:45:05.779Z,1.00
2023-05-18T12:47:45.585Z,1.00
2023-05-18T12:50:12.768Z,1.00
2023-05-18T12:52:40.304Z,1.00
2023-05-18T12:59:22.093Z,1.00
2023-05-18T13:01:49.419Z,1.00
2023-05-18T13:04:16.765Z,1.00
2023-05-18T13:06:51.630Z,1.00
2023-05-18T13:09:34.301Z,1.00
2023-05-18T13:13:19.027Z,1.00
2023-05-18T13:15:46.952Z,1.00
2023-05-18T13:18:26.015Z,1.00
2023-05-18T13:21:01.263Z,1.00
2023-05-18T13:23:31.641Z,1.00
2023-05-18T13:26:01.371Z,1.00
2023-05-18T13:28:32.049Z,1.00
2023-05-18T13:30:59.782Z,1.00
2023-05-18T13:33:27.178Z,1.00
2023-05-18T13:35:54.453Z,1.00
2023-05-18T13:38:21.651Z,1.00
2023-05-18T13:40:48.936Z,1.00
2023-05-18T13:43:16.191Z,1.00
2023-05-18T13:45:43.955Z,1.00
2023-05-18T13:48:11.428Z,1.00
2023-05-18T13:50:39.606Z,1.00
2023-05-18T13:53:07.225Z,1.00
2023-05-18T13:55:35.677Z,1.00
2023-05-18T13:58:02.960Z,1.00
2023-05-18T14:00:33.471Z,1.00
2023-05-18T14:03:01.414Z,1.00
2023-05-18T14:05:28.684Z,1.00
2023-05-18T14:07:56.863Z,1.00
2023-05-18T14:10:24.234Z,1.00
2023-05-18T14:12:51.658Z,1.00
2023-05-18T14:15:36.801Z,1.00
2023-05-18T14:18:04.549Z,1.00
2023-05-18T14:20:32.158Z,1.00
2023-05-18T14:23:04.654Z,1.00
2023-05-18T14:25:32.584Z,1.00
2023-05-18T14:27:59.807Z,1.00
2023-05-18T14:30:27.250Z,1.00
2023-05-18T15:04:40.664Z,1.00
2023-05-18T15:07:13.581Z,1.00
2023-05-18T15:09:43.386Z,1.00
2023-05-18T15:12:10.716Z,1.00
2023-05-18T15:14:38.227Z,1.00
2023-05-18T15:17:07.502Z,1.00
2023-05-18T15:19:34.647Z,1.00
2023-05-18T15:22:01.781Z,1.00
2023-05-18T15:24:28.802Z,1.00
2023-05-18T15:26:56.161Z,1.00
2023-05-18T15:29:23.478Z,1.00
2023-05-18T15:31:51.547Z,1.00
2023-05-18T15:34:18.982Z,1.00
2023-05-18T15:36:46.262Z,1.00
2023-05-18T15:39:13.823Z,1.00
2023-05-18T15:41:40.811Z,1.00
2023-05-18T15:44:07.872Z,1.00
2023-05-18T15:46:36.002Z,1.00
2023-05-18T15:49:04.160Z,1.00
2023-05-18T15:51:31.690Z,1.00
2023-05-18T15:53:59.051Z,1.00
2023-05-18T15:56:26.311Z,1.00
2023-05-18T15:58:53.385Z,1.00
2023-05-18T16:01:20.482Z,1.00
2023-05-18T16:03:47.834Z,1.00
2023-05-18T16:06:15.252Z,1.00
2023-05-18T16:08:42.357Z,1.00
2023-05-18T16:11:09.450Z,1.00
2023-05-18T16:14:55.511Z,1.00
2023-05-18T16:17:23.065Z,1.00
2023-05-18T16:19:50.316Z,1.00
2023-05-18T16:22:17.557Z,1.00
2023-05-18T16:24:44.710Z,1.00
2023-05-18T16:27:11.745Z,1.00
2023-05-18T16:29:38.830Z,1.00
2023-05-18T16:32:06.601Z,1.00
2023-05-18T16:34:33.637Z,1.00
2023-05-18T16:37:00.683Z,1.00
2023-05-18T16:39:27.689Z,1.00
2023-05-18T16:41:54.863Z,1.00
2023-05-18T16:44:21.957Z,1.00
2023-05-18T16:46:49.173Z,1.00
2023-05-18T16:49:16.264Z,1.00
2023-05-18T16:51:43.543Z,1.00
2023-05-18T16:54:10.817Z,1.00
2023-05-18T16:56:37.794Z,1.00
2023-05-18T16:59:05.041Z,1.00
2023-05-18T17:01:32.626Z,1.00
2023-05-18T17:04:00.242Z,1.00
2023-05-18T17:06:27.519Z,1.00
2023-05-18T17:08:58.269Z,1.00
2023-05-18T17:11:27.111Z,1.00
2023-05-18T17:13:54.539Z,1.00
2023-05-18T17:16:22.198Z,1.00
2023-05-18T17:18:49.833Z,1.00
2023-05-18T17:21:16.998Z,1.00
2023-05-18T17:23:44.758Z,1.00
2023-05-18T17:26:11.934Z,1.00
2023-05-18T17:28:39.068Z,1.00
2023-05-18T17:31:06.670Z,1.00
2023-05-18T17:33:33.695Z,1.00
2023-05-18T17:36:00.985Z,1.00
2023-05-18T17:38:28.176Z,1.00
2023-05-18T17:40:55.561Z,1.00
2023-05-18T17:43:22.559Z,1.00
2023-05-18T17:45:59.204Z,1.00
2023-05-18T17:48:26.685Z,1.00
2023-05-18T17:51:00.625Z,1.00
2023-05-18T17:53:29.271Z,1.00
2023-05-18T17:56:00.140Z,1.00
2023-05-18T17:58:31.148Z,1.00
2023-05-18T18:00:58.757Z,1.00
2023-05-18T18:03:27.842Z,1.00
2023-05-18T18:05:59.817Z,1.00
2023-05-18T18:08:32.589Z,1.00
2023-05-18T18:11:01.229Z,1.00
2023-05-18T18:13:39.599Z,1.00
2023-05-18T18:18:48.261Z,1.00
2023-05-18T18:21:15.901Z,1.00
2023-05-18T18:23:52.412Z,1.00
2023-05-18T18:26:23.349Z,1.00
2023-05-18T18:28:51.573Z,1.00
2023-05-18T18:31:21.101Z,1.00
2023-05-18T18:33:50.947Z,1.00
2023-05-18T18:40:40.228Z,1.00
2023-05-18T18:43:51.661Z,1.00
2023-05-18T18:46:49.012Z,1.00
2023-05-18T18:49:19.501Z,1.00
2023-05-18T18:52:16.710Z,1.00
2023-05-18T18:55:02.413Z,1.00
2023-05-18T18:57:59.954Z,1.00
2023-05-18T19:00:46.645Z,1.00
2023-05-18T19:03:17.714Z,1.00
2023-05-18T19:05:50.226Z,1.00
2023-05-18T19:08:23.885Z,1.00
2023-05-18T19:10:51.119Z,1.00
2023-05-18T19:13:26.254Z,1.00
2023-05-18T19:16:31.897Z,1.00
2023-05-18T19:19:17.212Z,1.00
2023-05-18T19:26:38.103Z,1.00
2023-05-18T19:29:09.797Z,1.00
2023-05-18T19:31:42.125Z,1.00
2023-05-18T19:34:18.148Z,1.00
2023-05-18T19:36:54.722Z,1.00
2023-05-18T19:39:48.483Z,1.00
2023-05-18T19:42:43.975Z,1.00
2023-05-18T19:45:21.087Z,1.00
2023-05-18T19:48:12.075Z,1.00
2023-05-18T19:50:41.240Z,1.00
2023-05-18T19:53:11.507Z,1.00
2023-05-18T19:58:36.931Z,1.00
2023-05-18T20:01:05.403Z,1.00
2023-05-18T20:03:40.157Z,1.00
2023-05-18T20:06:16.520Z,1.00
2023-05-18T20:08:49.538Z,1.00
2023-05-18T20:15:00.018Z,1.00
2023-05-18T21:18:03.051Z,1.00
2023-05-18T21:20:33.451Z,1.00
2023-05-18T21:23:04.421Z,1.00
2023-05-18T21:25:31.700Z,1.00
2023-05-18T21:27:58.943Z,1.00
2023-05-18T21:30:30.436Z,1.00
2023-05-18T21:33:01.058Z,1.00
2023-05-18T21:35:28.474Z,1.00
2023-05-18T21:37:55.584Z,1.00
2023-05-18T21:40:40.244Z,1.00
2023-05-18T21:43:08.856Z,1.00
2023-05-18T21:45:36.001Z,1.00
2023-05-18T21:48:03.121Z,1.00
2023-05-18T21:50:30.361Z,1.00
2023-05-18T21:52:58.306Z,1.00
2023-05-18T21:55:45.936Z,1.00
2023-05-18T21:58:13.133Z,1.00
2023-05-18T22:00:40.259Z,1.00
2023-05-18T22:03:07.427Z,1.00
2023-05-18T22:05:35.000Z,1.00
2023-05-18T22:08:02.067Z,1.00
2023-05-18T22:10:31.307Z,1.00
2023-05-18T22:12:58.858Z,1.00
2023-05-18T22:15:25.943Z,1.00
2023-05-18T22:17:54.551Z,1.00
2023-05-18T22:20:21.611Z,1.00
2023-05-18T22:22:48.812Z,1.00
2023-05-18T22:25:18.088Z,1.00
2023-05-18T22:27:45.735Z,1.00
2023-05-18T22:30:14.176Z,1.00
2023-05-18T22:32:41.204Z,1.00
2023-05-18T22:35:09.192Z,1.00
2023-05-18T22:37:36.532Z,1.00
2023-05-18T22:40:06.291Z,1.00
2023-05-18T22:42:33.659Z,1.00
2023-05-18T22:45:00.995Z,1.00
2023-05-18T22:47:28.324Z,1.00
2023-05-18T22:49:55.554Z,1.00
2023-05-18T22:52:22.809Z,1.00
2023-05-18T22:54:50.344Z,1.00
2023-05-18T22:57:17.409Z,1.00
2023-05-18T22:59:44.609Z,1.00
2023-05-18T23:02:12.499Z,1.00
2023-05-18T23:04:39.609Z,1.00
2023-05-18T23:07:07.402Z,1.00
2023-05-18T23:09:37.058Z,1.00
2023-05-18T23:12:04.689Z,1.00
2023-05-18T23:14:33.814Z,1.00
2023-05-18T23:17:01.074Z,1.00
2023-05-18T23:19:28.370Z,1.00
2023-05-18T23:21:56.075Z,1.00
2023-05-18T23:24:23.246Z,1.00
2023-05-18T23:26:50.458Z,1.00
2023-05-18T23:29:17.573Z,1.00
2023-05-18T23:31:44.892Z,1.00
2023-05-18T23:34:12.182Z,1.00
2023-05-18T23:36:42.624Z,1.00
2023-05-18T23:39:19.094Z,1.00
2023-05-18T23:41:46.579Z,1.00
2023-05-18T23:44:13.814Z,1.00
2023-05-18T23:46:41.330Z,1.00
2023-05-18T23:49:08.894Z,1.00
2023-05-18T23:51:36.586Z,1.00
2023-05-18T23:54:07.265Z,1.00
2023-05-18T23:56:34.793Z,1.30
2023-05-18T23:59:02.582Z,2.20
